sensor_id;sensor_type;location;lat;lon;timestamp;P1;durP1;ratioP1;P2;durP2;ratioP2
68985;SDS011;56035;37.534;-122.308;2022-07-22T00:01:42;3.47;;;1.30;;
68985;SDS011;56035;37.534;-122.308;2022-07-22T00:04:08;3.97;;;1.48;;
68985;SDS011;56035;37.534;-122.308;2022-07-22T00:06:34;3.58;;;1.30;;
68985;SDS011;56035;37.534;-122.308;2022-07-22T00:09:00;4.43;;;1.70;;
68985;SDS011;56035;37.534;-122.308;2022-07-22T00:11:26;3.83;;;1.60;;
68985;SDS011;56035;37.534;-122.308;2022-07-22T00:13:52;2.80;;;1.38;;
68985;SDS011;56035;37.534;-122.308;2022-07-22T00:16:18;3.70;;;1.40;;
68985;SDS011;56035;37.534;-122.308;2022-07-22T00:18:45;4.20;;;1.65;;
68985;SDS011;56035;37.534;-122.308;2022-07-22T00:21:12;4.40;;;1.50;;
68985;SDS011;56035;37.534;-122.308;2022-07-22T00:23:38;4.38;;;1.55;;
68985;SDS011;56035;37.534;-122.308;2022-07-22T00:26:04;5.63;;;1.83;;
68985;SDS011;56035;37.534;-122.308;2022-07-22T00:28:30;3.17;;;1.38;;
68985;SDS011;56035;37.534;-122.308;2022-07-22T00:30:56;4.38;;;2.03;;
68985;SDS011;56035;37.534;-122.308;2022-07-22T00:33:24;4.47;;;1.63;;
68985;SDS011;56035;37.534;-122.308;2022-07-22T00:35:50;6.30;;;1.70;;
68985;SDS011;56035;37.534;-122.308;2022-07-22T00:38:16;4.15;;;1.85;;
68985;SDS011;56035;37.534;-122.308;2022-07-22T00:43:08;4.82;;;1.88;;
68985;SDS011;56035;37.534;-122.308;2022-07-22T00:45:34;5.50;;;2.00;;
68985;SDS011;56035;37.534;-122.308;2022-07-22T00:48:01;6.18;;;2.10;;
68985;SDS011;56035;37.534;-122.308;2022-07-22T00:50:27;5.75;;;2.13;;
68985;SDS011;56035;37.534;-122.308;2022-07-22T00:52:53;5.30;;;1.77;;
68985;SDS011;56035;37.534;-122.308;2022-07-22T00:55:19;5.97;;;1.80;;
68985;SDS011;56035;37.534;-122.308;2022-07-22T00:57:46;3.80;;;1.77;;
68985;SDS011;56035;37.534;-122.308;2022-07-22T01:00:14;4.80;;;1.90;;
68985;SDS011;56035;37.534;-122.308;2022-07-22T01:02:42;6.00;;;2.20;;
68985;SDS011;56035;37.534;-122.308;2022-07-22T01:05:08;12.60;;;2.33;;
68985;SDS011;56035;37.534;-122.308;2022-07-22T01:07:36;6.40;;;2.03;;
68985;SDS011;56035;37.534;-122.308;2022-07-22T01:10:04;6.75;;;2.40;;
68985;SDS011;56035;37.534;-122.308;2022-07-22T01:12:31;4.95;;;1.85;;
68985;SDS011;56035;37.534;-122.308;2022-07-22T01:14:57;5.93;;;1.70;;
68985;SDS011;56035;37.534;-122.308;2022-07-22T01:17:24;6.00;;;2.08;;
68985;SDS011;56035;37.534;-122.308;2022-07-22T01:19:50;6.68;;;1.80;;
68985;SDS011;56035;37.534;-122.308;2022-07-22T01:22:17;5.15;;;1.90;;
68985;SDS011;56035;37.534;-122.308;2022-07-22T01:24:43;4.85;;;1.90;;
68985;SDS011;56035;37.534;-122.308;2022-07-22T01:27:09;5.07;;;2.03;;
68985;SDS011;56035;37.534;-122.308;2022-07-22T01:29:35;4.35;;;1.70;;
68985;SDS011;56035;37.534;-122.308;2022-07-22T01:32:02;4.85;;;2.08;;
68985;SDS011;56035;37.534;-122.308;2022-07-22T01:34:28;6.97;;;2.00;;
68985;SDS011;56035;37.534;-122.308;2022-07-22T01:36:54;6.50;;;2.40;;
68985;SDS011;56035;37.534;-122.308;2022-07-22T01:39:20;5.18;;;2.00;;
68985;SDS011;56035;37.534;-122.308;2022-07-22T01:41:46;7.38;;;2.15;;
68985;SDS011;56035;37.534;-122.308;2022-07-22T01:44:13;4.80;;;2.50;;
68985;SDS011;56035;37.534;-122.308;2022-07-22T01:46:39;8.25;;;2.75;;
68985;SDS011;56035;37.534;-122.308;2022-07-22T01:49:05;5.78;;;2.13;;
68985;SDS011;56035;37.534;-122.308;2022-07-22T01:51:31;5.95;;;2.30;;
68985;SDS011;56035;37.534;-122.308;2022-07-22T01:53:58;7.53;;;2.38;;
68985;SDS011;56035;37.534;-122.308;2022-07-22T01:56:24;8.35;;;2.95;;
68985;SDS011;56035;37.534;-122.308;2022-07-22T01:58:50;6.93;;;2.58;;
68985;SDS011;56035;37.534;-122.308;2022-07-22T02:01:16;7.55;;;2.40;;
68985;SDS011;56035;37.534;-122.308;2022-07-22T02:03:42;4.85;;;2.05;;
68985;SDS011;56035;37.534;-122.308;2022-07-22T02:06:08;6.13;;;2.15;;
68985;SDS011;56035;37.534;-122.308;2022-07-22T02:08:34;5.57;;;2.05;;
68985;SDS011;56035;37.534;-122.308;2022-07-22T02:11:01;6.20;;;2.47;;
68985;SDS011;56035;37.534;-122.308;2022-07-22T02:13:27;4.43;;;2.17;;
68985;SDS011;56035;37.534;-122.308;2022-07-22T02:15:53;6.60;;;2.42;;
68985;SDS011;56035;37.534;-122.308;2022-07-22T02:18:19;6.53;;;2.45;;
68985;SDS011;56035;37.534;-122.308;2022-07-22T02:20:46;4.43;;;2.00;;
68985;SDS011;56035;37.534;-122.308;2022-07-22T02:23:12;5.80;;;2.58;;
68985;SDS011;56035;37.534;-122.308;2022-07-22T02:25:39;4.95;;;2.13;;
68985;SDS011;56035;37.534;-122.308;2022-07-22T02:28:06;5.03;;;2.17;;
68985;SDS011;56035;37.534;-122.308;2022-07-22T02:30:33;7.90;;;2.75;;
68985;SDS011;56035;37.534;-122.308;2022-07-22T02:32:59;7.40;;;2.17;;
68985;SDS011;56035;37.534;-122.308;2022-07-22T02:35:25;6.32;;;2.15;;
68985;SDS011;56035;37.534;-122.308;2022-07-22T02:37:51;8.15;;;2.28;;
68985;SDS011;56035;37.534;-122.308;2022-07-22T02:40:17;6.97;;;2.50;;
68985;SDS011;56035;37.534;-122.308;2022-07-22T02:42:44;5.53;;;2.00;;
68985;SDS011;56035;37.534;-122.308;2022-07-22T02:45:10;6.22;;;2.20;;
68985;SDS011;56035;37.534;-122.308;2022-07-22T02:47:46;5.95;;;2.50;;
68985;SDS011;56035;37.534;-122.308;2022-07-22T02:50:19;5.30;;;2.17;;
68985;SDS011;56035;37.534;-122.308;2022-07-22T02:52:46;6.75;;;2.15;;
68985;SDS011;56035;37.534;-122.308;2022-07-22T02:55:13;7.80;;;2.88;;
68985;SDS011;56035;37.534;-122.308;2022-07-22T02:57:40;6.70;;;2.20;;
68985;SDS011;56035;37.534;-122.308;2022-07-22T03:00:07;6.32;;;2.50;;
68985;SDS011;56035;37.534;-122.308;2022-07-22T03:02:35;6.83;;;2.73;;
68985;SDS011;56035;37.534;-122.308;2022-07-22T03:05:02;7.00;;;2.55;;
68985;SDS011;56035;37.534;-122.308;2022-07-22T03:07:29;6.05;;;2.40;;
68985;SDS011;56035;37.534;-122.308;2022-07-22T03:09:55;10.20;;;2.67;;
68985;SDS011;56035;37.534;-122.308;2022-07-22T03:12:21;8.35;;;2.78;;
68985;SDS011;56035;37.534;-122.308;2022-07-22T03:14:47;6.70;;;3.08;;
68985;SDS011;56035;37.534;-122.308;2022-07-22T03:17:14;15.48;;;2.72;;
68985;SDS011;56035;37.534;-122.308;2022-07-22T03:19:40;6.35;;;2.85;;
68985;SDS011;56035;37.534;-122.308;2022-07-22T03:22:06;7.68;;;2.83;;
68985;SDS011;56035;37.534;-122.308;2022-07-22T03:24:33;9.10;;;3.13;;
68985;SDS011;56035;37.534;-122.308;2022-07-22T03:27:00;9.45;;;3.15;;
68985;SDS011;56035;37.534;-122.308;2022-07-22T03:29:26;6.82;;;2.90;;
68985;SDS011;56035;37.534;-122.308;2022-07-22T03:31:52;7.30;;;3.22;;
68985;SDS011;56035;37.534;-122.308;2022-07-22T03:34:18;12.02;;;3.40;;
68985;SDS011;56035;37.534;-122.308;2022-07-22T03:36:44;10.18;;;3.60;;
68985;SDS011;56035;37.534;-122.308;2022-07-22T03:39:10;8.68;;;2.90;;
68985;SDS011;56035;37.534;-122.308;2022-07-22T03:41:36;8.40;;;3.35;;
68985;SDS011;56035;37.534;-122.308;2022-07-22T03:44:03;11.90;;;3.70;;
68985;SDS011;56035;37.534;-122.308;2022-07-22T03:46:29;8.95;;;3.20;;
68985;SDS011;56035;37.534;-122.308;2022-07-22T03:48:55;10.65;;;3.83;;
68985;SDS011;56035;37.534;-122.308;2022-07-22T03:51:21;10.65;;;3.30;;
68985;SDS011;56035;37.534;-122.308;2022-07-22T03:53:47;11.75;;;3.65;;
68985;SDS011;56035;37.534;-122.308;2022-07-22T03:56:13;10.50;;;4.07;;
68985;SDS011;56035;37.534;-122.308;2022-07-22T03:58:40;8.07;;;3.63;;
68985;SDS011;56035;37.534;-122.308;2022-07-22T04:01:07;10.23;;;3.80;;
68985;SDS011;56035;37.534;-122.308;2022-07-22T04:03:33;7.68;;;3.67;;
68985;SDS011;56035;37.534;-122.308;2022-07-22T04:05:59;7.15;;;3.63;;
68985;SDS011;56035;37.534;-122.308;2022-07-22T04:08:25;7.15;;;3.53;;
68985;SDS011;56035;37.534;-122.308;2022-07-22T04:10:52;7.55;;;3.50;;
68985;SDS011;56035;37.534;-122.308;2022-07-22T04:13:18;7.38;;;3.50;;
68985;SDS011;56035;37.534;-122.308;2022-07-22T04:15:44;13.75;;;4.20;;
68985;SDS011;56035;37.534;-122.308;2022-07-22T04:18:10;8.55;;;3.85;;
68985;SDS011;56035;37.534;-122.308;2022-07-22T04:20:36;12.93;;;3.95;;
68985;SDS011;56035;37.534;-122.308;2022-07-22T04:23:02;10.13;;;4.07;;
68985;SDS011;56035;37.534;-122.308;2022-07-22T04:25:28;8.18;;;3.63;;
68985;SDS011;56035;37.534;-122.308;2022-07-22T04:27:55;9.80;;;3.65;;
68985;SDS011;56035;37.534;-122.308;2022-07-22T04:30:21;7.82;;;3.90;;
68985;SDS011;56035;37.534;-122.308;2022-07-22T04:32:47;9.32;;;4.05;;
68985;SDS011;56035;37.534;-122.308;2022-07-22T04:35:14;10.25;;;3.95;;
68985;SDS011;56035;37.534;-122.308;2022-07-22T04:37:40;6.28;;;3.05;;
68985;SDS011;56035;37.534;-122.308;2022-07-22T04:40:06;8.23;;;3.58;;
68985;SDS011;56035;37.534;-122.308;2022-07-22T04:42:32;10.95;;;3.75;;
68985;SDS011;56035;37.534;-122.308;2022-07-22T04:44:59;8.48;;;3.00;;
68985;SDS011;56035;37.534;-122.308;2022-07-22T04:47:25;9.80;;;3.50;;
68985;SDS011;56035;37.534;-122.308;2022-07-22T04:49:51;7.75;;;3.38;;
68985;SDS011;56035;37.534;-122.308;2022-07-22T04:52:18;8.95;;;3.50;;
68985;SDS011;56035;37.534;-122.308;2022-07-22T04:54:44;10.65;;;4.18;;
68985;SDS011;56035;37.534;-122.308;2022-07-22T04:57:10;9.93;;;3.55;;
68985;SDS011;56035;37.534;-122.308;2022-07-22T04:59:36;8.70;;;3.63;;
68985;SDS011;56035;37.534;-122.308;2022-07-22T05:02:02;8.20;;;3.38;;
68985;SDS011;56035;37.534;-122.308;2022-07-22T05:04:29;10.05;;;3.50;;
68985;SDS011;56035;37.534;-122.308;2022-07-22T05:06:55;6.75;;;3.05;;
68985;SDS011;56035;37.534;-122.308;2022-07-22T05:09:21;11.88;;;3.97;;
68985;SDS011;56035;37.534;-122.308;2022-07-22T05:11:47;9.75;;;4.28;;
68985;SDS011;56035;37.534;-122.308;2022-07-22T05:14:13;8.73;;;3.72;;
68985;SDS011;56035;37.534;-122.308;2022-07-22T05:16:39;11.48;;;4.07;;
68985;SDS011;56035;37.534;-122.308;2022-07-22T05:19:06;9.57;;;3.58;;
68985;SDS011;56035;37.534;-122.308;2022-07-22T05:21:32;8.43;;;3.80;;
68985;SDS011;56035;37.534;-122.308;2022-07-22T05:23:58;9.90;;;3.85;;
68985;SDS011;56035;37.534;-122.308;2022-07-22T05:26:25;8.02;;;3.55;;
68985;SDS011;56035;37.534;-122.308;2022-07-22T05:28:54;10.00;;;3.67;;
68985;SDS011;56035;37.534;-122.308;2022-07-22T05:31:20;13.43;;;3.92;;
68985;SDS011;56035;37.534;-122.308;2022-07-22T05:33:47;12.25;;;4.30;;
68985;SDS011;56035;37.534;-122.308;2022-07-22T05:36:13;10.05;;;3.58;;
68985;SDS011;56035;37.534;-122.308;2022-07-22T05:38:39;7.30;;;3.33;;
68985;SDS011;56035;37.534;-122.308;2022-07-22T05:41:05;9.98;;;3.40;;
68985;SDS011;56035;37.534;-122.308;2022-07-22T05:43:32;14.00;;;3.72;;
68985;SDS011;56035;37.534;-122.308;2022-07-22T05:45:58;10.07;;;4.45;;
68985;SDS011;56035;37.534;-122.308;2022-07-22T05:48:24;12.25;;;4.78;;
68985;SDS011;56035;37.534;-122.308;2022-07-22T05:50:50;10.02;;;3.88;;
68985;SDS011;56035;37.534;-122.308;2022-07-22T05:53:17;9.73;;;4.70;;
68985;SDS011;56035;37.534;-122.308;2022-07-22T05:55:43;14.45;;;4.50;;
68985;SDS011;56035;37.534;-122.308;2022-07-22T05:58:09;12.63;;;4.30;;
68985;SDS011;56035;37.534;-122.308;2022-07-22T06:00:36;14.57;;;4.47;;
68985;SDS011;56035;37.534;-122.308;2022-07-22T06:03:02;10.13;;;4.40;;
68985;SDS011;56035;37.534;-122.308;2022-07-22T06:05:28;11.05;;;4.10;;
68985;SDS011;56035;37.534;-122.308;2022-07-22T06:07:54;14.70;;;4.28;;
68985;SDS011;56035;37.534;-122.308;2022-07-22T06:10:20;16.13;;;5.15;;
68985;SDS011;56035;37.534;-122.308;2022-07-22T06:12:46;11.93;;;4.10;;
68985;SDS011;56035;37.534;-122.308;2022-07-22T06:15:13;10.77;;;4.55;;
68985;SDS011;56035;37.534;-122.308;2022-07-22T06:17:39;11.20;;;4.50;;
68985;SDS011;56035;37.534;-122.308;2022-07-22T06:20:05;13.75;;;4.35;;
68985;SDS011;56035;37.534;-122.308;2022-07-22T06:22:32;12.00;;;4.20;;
68985;SDS011;56035;37.534;-122.308;2022-07-22T06:24:58;14.95;;;4.25;;
68985;SDS011;56035;37.534;-122.308;2022-07-22T06:27:24;13.70;;;5.10;;
68985;SDS011;56035;37.534;-122.308;2022-07-22T06:29:50;14.35;;;4.45;;
68985;SDS011;56035;37.534;-122.308;2022-07-22T06:32:17;13.02;;;5.03;;
68985;SDS011;56035;37.534;-122.308;2022-07-22T06:34:43;15.20;;;5.18;;
68985;SDS011;56035;37.534;-122.308;2022-07-22T06:37:09;17.00;;;5.72;;
68985;SDS011;56035;37.534;-122.308;2022-07-22T06:39:35;10.43;;;4.05;;
68985;SDS011;56035;37.534;-122.308;2022-07-22T06:42:01;16.30;;;4.63;;
68985;SDS011;56035;37.534;-122.308;2022-07-22T06:44:27;13.15;;;4.80;;
68985;SDS011;56035;37.534;-122.308;2022-07-22T06:46:54;14.02;;;4.57;;
68985;SDS011;56035;37.534;-122.308;2022-07-22T06:49:20;13.47;;;4.63;;
68985;SDS011;56035;37.534;-122.308;2022-07-22T06:51:46;16.40;;;4.50;;
68985;SDS011;56035;37.534;-122.308;2022-07-22T06:54:12;13.27;;;4.72;;
68985;SDS011;56035;37.534;-122.308;2022-07-22T06:56:38;9.70;;;4.35;;
68985;SDS011;56035;37.534;-122.308;2022-07-22T06:59:04;11.75;;;4.38;;
68985;SDS011;56035;37.534;-122.308;2022-07-22T07:01:30;10.80;;;4.53;;
68985;SDS011;56035;37.534;-122.308;2022-07-22T07:03:57;11.15;;;4.18;;
68985;SDS011;56035;37.534;-122.308;2022-07-22T07:06:23;15.85;;;4.63;;
68985;SDS011;56035;37.534;-122.308;2022-07-22T07:08:49;12.75;;;4.40;;
68985;SDS011;56035;37.534;-122.308;2022-07-22T07:11:15;13.00;;;4.70;;
68985;SDS011;56035;37.534;-122.308;2022-07-22T07:13:41;13.77;;;4.80;;
68985;SDS011;56035;37.534;-122.308;2022-07-22T07:16:07;16.42;;;4.55;;
68985;SDS011;56035;37.534;-122.308;2022-07-22T07:18:33;12.70;;;4.30;;
68985;SDS011;56035;37.534;-122.308;2022-07-22T07:21:00;14.38;;;4.60;;
68985;SDS011;56035;37.534;-122.308;2022-07-22T07:23:26;12.85;;;5.10;;
68985;SDS011;56035;37.534;-122.308;2022-07-22T07:25:52;17.25;;;5.20;;
68985;SDS011;56035;37.534;-122.308;2022-07-22T07:28:18;11.98;;;5.07;;
68985;SDS011;56035;37.534;-122.308;2022-07-22T07:30:45;13.82;;;4.40;;
68985;SDS011;56035;37.534;-122.308;2022-07-22T07:33:11;14.65;;;5.63;;
68985;SDS011;56035;37.534;-122.308;2022-07-22T07:35:37;11.20;;;5.00;;
68985;SDS011;56035;37.534;-122.308;2022-07-22T07:38:03;17.30;;;5.43;;
68985;SDS011;56035;37.534;-122.308;2022-07-22T07:40:30;15.07;;;5.55;;
68985;SDS011;56035;37.534;-122.308;2022-07-22T07:42:56;12.82;;;5.40;;
68985;SDS011;56035;37.534;-122.308;2022-07-22T07:45:22;15.45;;;4.82;;
68985;SDS011;56035;37.534;-122.308;2022-07-22T07:47:48;17.02;;;5.43;;
68985;SDS011;56035;37.534;-122.308;2022-07-22T07:50:15;15.85;;;5.50;;
68985;SDS011;56035;37.534;-122.308;2022-07-22T07:53:01;13.37;;;5.30;;
68985;SDS011;56035;37.534;-122.308;2022-07-22T07:55:27;19.48;;;5.43;;
68985;SDS011;56035;37.534;-122.308;2022-07-22T07:57:53;15.05;;;5.53;;
68985;SDS011;56035;37.534;-122.308;2022-07-22T08:00:24;12.07;;;4.78;;
68985;SDS011;56035;37.534;-122.308;2022-07-22T08:02:55;14.50;;;5.20;;
68985;SDS011;56035;37.534;-122.308;2022-07-22T08:05:21;13.27;;;5.40;;
68985;SDS011;56035;37.534;-122.308;2022-07-22T08:07:48;8.40;;;4.03;;
68985;SDS011;56035;37.534;-122.308;2022-07-22T08:12:41;13.97;;;4.97;;
68985;SDS011;56035;37.534;-122.308;2022-07-22T08:15:07;14.10;;;5.05;;
68985;SDS011;56035;37.534;-122.308;2022-07-22T08:17:35;12.13;;;5.27;;
68985;SDS011;56035;37.534;-122.308;2022-07-22T08:20:02;12.40;;;5.93;;
68985;SDS011;56035;37.534;-122.308;2022-07-22T08:22:30;12.13;;;4.90;;
68985;SDS011;56035;37.534;-122.308;2022-07-22T08:24:57;14.50;;;5.03;;
68985;SDS011;56035;37.534;-122.308;2022-07-22T08:27:24;13.88;;;4.72;;
68985;SDS011;56035;37.534;-122.308;2022-07-22T08:29:50;15.13;;;5.87;;
68985;SDS011;56035;37.534;-122.308;2022-07-22T08:32:16;11.90;;;4.85;;
68985;SDS011;56035;37.534;-122.308;2022-07-22T08:34:42;12.60;;;5.15;;
68985;SDS011;56035;37.534;-122.308;2022-07-22T08:37:09;15.82;;;5.47;;
68985;SDS011;56035;37.534;-122.308;2022-07-22T08:39:35;15.52;;;4.97;;
68985;SDS011;56035;37.534;-122.308;2022-07-22T08:42:02;14.32;;;5.70;;
68985;SDS011;56035;37.534;-122.308;2022-07-22T08:44:32;18.75;;;5.32;;
68985;SDS011;56035;37.534;-122.308;2022-07-22T08:46:59;16.83;;;5.17;;
68985;SDS011;56035;37.534;-122.308;2022-07-22T08:49:26;13.93;;;5.77;;
68985;SDS011;56035;37.534;-122.308;2022-07-22T08:51:53;16.92;;;6.15;;
68985;SDS011;56035;37.534;-122.308;2022-07-22T08:54:19;12.88;;;5.15;;
68985;SDS011;56035;37.534;-122.308;2022-07-22T08:56:49;15.10;;;5.68;;
68985;SDS011;56035;37.534;-122.308;2022-07-22T08:59:17;15.90;;;5.83;;
68985;SDS011;56035;37.534;-122.308;2022-07-22T09:04:30;18.07;;;6.47;;
68985;SDS011;56035;37.534;-122.308;2022-07-22T09:06:57;16.08;;;6.20;;
68985;SDS011;56035;37.534;-122.308;2022-07-22T09:09:31;17.23;;;4.85;;
68985;SDS011;56035;37.534;-122.308;2022-07-22T09:12:05;15.60;;;6.03;;
68985;SDS011;56035;37.534;-122.308;2022-07-22T09:14:51;17.23;;;6.07;;
68985;SDS011;56035;37.534;-122.308;2022-07-22T09:17:25;15.27;;;4.77;;
68985;SDS011;56035;37.534;-122.308;2022-07-22T09:19:55;15.67;;;6.03;;
68985;SDS011;56035;37.534;-122.308;2022-07-22T09:22:39;17.50;;;5.70;;
68985;SDS011;56035;37.534;-122.308;2022-07-22T09:25:16;13.13;;;5.20;;
68985;SDS011;56035;37.534;-122.308;2022-07-22T09:27:47;17.10;;;5.30;;
68985;SDS011;56035;37.534;-122.308;2022-07-22T09:30:16;13.23;;;5.20;;
68985;SDS011;56035;37.534;-122.308;2022-07-22T09:32:44;17.87;;;5.77;;
68985;SDS011;56035;37.534;-122.308;2022-07-22T09:35:10;14.45;;;5.60;;
68985;SDS011;56035;37.534;-122.308;2022-07-22T09:37:59;16.23;;;6.17;;
68985;SDS011;56035;37.534;-122.308;2022-07-22T09:40:26;16.45;;;5.55;;
68985;SDS011;56035;37.534;-122.308;2022-07-22T09:42:55;14.47;;;6.00;;
68985;SDS011;56035;37.534;-122.308;2022-07-22T09:45:23;15.47;;;5.43;;
68985;SDS011;56035;37.534;-122.308;2022-07-22T09:47:55;18.40;;;6.53;;
68985;SDS011;56035;37.534;-122.308;2022-07-22T09:50:23;15.67;;;5.70;;
68985;SDS011;56035;37.534;-122.308;2022-07-22T09:52:51;18.97;;;6.13;;
68985;SDS011;56035;37.534;-122.308;2022-07-22T09:55:19;19.87;;;6.40;;
68985;SDS011;56035;37.534;-122.308;2022-07-22T09:57:47;20.37;;;7.17;;
68985;SDS011;56035;37.534;-122.308;2022-07-22T10:00:15;17.37;;;6.57;;
68985;SDS011;56035;37.534;-122.308;2022-07-22T10:02:51;14.23;;;5.90;;
68985;SDS011;56035;37.534;-122.308;2022-07-22T10:05:18;17.17;;;5.87;;
68985;SDS011;56035;37.534;-122.308;2022-07-22T10:07:53;15.00;;;5.67;;
68985;SDS011;56035;37.534;-122.308;2022-07-22T10:10:21;18.03;;;6.07;;
68985;SDS011;56035;37.534;-122.308;2022-07-22T10:12:53;19.13;;;6.07;;
68985;SDS011;56035;37.534;-122.308;2022-07-22T10:15:21;14.03;;;5.97;;
68985;SDS011;56035;37.534;-122.308;2022-07-22T10:17:49;21.37;;;6.63;;
68985;SDS011;56035;37.534;-122.308;2022-07-22T10:20:21;19.40;;;5.67;;
68985;SDS011;56035;37.534;-122.308;2022-07-22T10:22:59;16.80;;;6.20;;
68985;SDS011;56035;37.534;-122.308;2022-07-22T10:25:52;18.23;;;6.63;;
68985;SDS011;56035;37.534;-122.308;2022-07-22T10:28:27;21.37;;;5.80;;
68985;SDS011;56035;37.534;-122.308;2022-07-22T10:33:40;18.23;;;5.90;;
68985;SDS011;56035;37.534;-122.308;2022-07-22T10:36:06;17.45;;;5.80;;
68985;SDS011;56035;37.534;-122.308;2022-07-22T10:38:34;16.37;;;7.07;;
68985;SDS011;56035;37.534;-122.308;2022-07-22T10:41:01;20.50;;;6.03;;
68985;SDS011;56035;37.534;-122.308;2022-07-22T10:46:07;17.80;;;6.47;;
68985;SDS011;56035;37.534;-122.308;2022-07-22T10:56:06;18.37;;;5.50;;
68985;SDS011;56035;37.534;-122.308;2022-07-22T10:59:21;19.53;;;6.30;;
68985;SDS011;56035;37.534;-122.308;2022-07-22T11:01:39;19.93;;;6.10;;
68985;SDS011;56035;37.534;-122.308;2022-07-22T11:04:17;17.80;;;6.07;;
68985;SDS011;56035;37.534;-122.308;2022-07-22T11:06:47;20.40;;;5.67;;
68985;SDS011;56035;37.534;-122.308;2022-07-22T11:09:16;19.70;;;5.80;;
68985;SDS011;56035;37.534;-122.308;2022-07-22T11:11:53;15.10;;;6.03;;
68985;SDS011;56035;37.534;-122.308;2022-07-22T11:14:27;18.10;;;5.80;;
68985;SDS011;56035;37.534;-122.308;2022-07-22T11:16:56;18.03;;;6.17;;
68985;SDS011;56035;37.534;-122.308;2022-07-22T11:19:31;23.50;;;5.90;;
68985;SDS011;56035;37.534;-122.308;2022-07-22T11:22:07;15.17;;;5.47;;
68985;SDS011;56035;37.534;-122.308;2022-07-22T11:24:35;24.65;;;6.43;;
68985;SDS011;56035;37.534;-122.308;2022-07-22T11:27:02;20.40;;;6.97;;
68985;SDS011;56035;37.534;-122.308;2022-07-22T11:32:02;21.33;;;6.63;;
68985;SDS011;56035;37.534;-122.308;2022-07-22T11:34:29;23.07;;;7.33;;
68985;SDS011;56035;37.534;-122.308;2022-07-22T11:36:56;25.87;;;8.93;;
68985;SDS011;56035;37.534;-122.308;2022-07-22T11:39:24;27.13;;;6.90;;
68985;SDS011;56035;37.534;-122.308;2022-07-22T11:41:54;22.30;;;6.63;;
68985;SDS011;56035;37.534;-122.308;2022-07-22T11:44:23;20.63;;;6.37;;
68985;SDS011;56035;37.534;-122.308;2022-07-22T11:46:51;22.13;;;6.83;;
68985;SDS011;56035;37.534;-122.308;2022-07-22T11:49:18;25.13;;;6.95;;
68985;SDS011;56035;37.534;-122.308;2022-07-22T11:51:46;21.23;;;6.70;;
68985;SDS011;56035;37.534;-122.308;2022-07-22T11:54:12;19.05;;;5.95;;
68985;SDS011;56035;37.534;-122.308;2022-07-22T11:56:39;21.98;;;6.60;;
68985;SDS011;56035;37.534;-122.308;2022-07-22T11:59:06;22.58;;;7.28;;
68985;SDS011;56035;37.534;-122.308;2022-07-22T12:01:36;23.67;;;6.57;;
68985;SDS011;56035;37.534;-122.308;2022-07-22T12:04:03;20.30;;;6.87;;
68985;SDS011;56035;37.534;-122.308;2022-07-22T12:06:33;19.50;;;6.50;;
68985;SDS011;56035;37.534;-122.308;2022-07-22T12:09:08;19.40;;;6.63;;
68985;SDS011;56035;37.534;-122.308;2022-07-22T12:11:35;21.13;;;6.07;;
68985;SDS011;56035;37.534;-122.308;2022-07-22T12:14:10;24.20;;;6.30;;
68985;SDS011;56035;37.534;-122.308;2022-07-22T12:16:39;24.03;;;6.63;;
68985;SDS011;56035;37.534;-122.308;2022-07-22T12:19:07;18.50;;;5.87;;
68985;SDS011;56035;37.534;-122.308;2022-07-22T12:21:36;21.60;;;6.10;;
68985;SDS011;56035;37.534;-122.308;2022-07-22T12:24:24;19.57;;;6.57;;
68985;SDS011;56035;37.534;-122.308;2022-07-22T12:26:56;20.13;;;6.30;;
68985;SDS011;56035;37.534;-122.308;2022-07-22T12:32:03;16.17;;;5.50;;
68985;SDS011;56035;37.534;-122.308;2022-07-22T12:39:58;21.53;;;6.43;;
68985;SDS011;56035;37.534;-122.308;2022-07-22T12:42:26;18.70;;;5.90;;
68985;SDS011;56035;37.534;-122.308;2022-07-22T12:45:01;18.40;;;5.40;;
68985;SDS011;56035;37.534;-122.308;2022-07-22T12:47:40;21.43;;;6.60;;
68985;SDS011;56035;37.534;-122.308;2022-07-22T12:50:44;20.17;;;6.47;;
68985;SDS011;56035;37.534;-122.308;2022-07-22T12:53:13;18.37;;;5.70;;
68985;SDS011;56035;37.534;-122.308;2022-07-22T12:55:42;19.13;;;5.70;;
68985;SDS011;56035;37.534;-122.308;2022-07-22T12:58:10;21.03;;;6.00;;
68985;SDS011;56035;37.534;-122.308;2022-07-22T13:03:08;21.40;;;5.50;;
68985;SDS011;56035;37.534;-122.308;2022-07-22T13:05:34;14.82;;;5.97;;
68985;SDS011;56035;37.534;-122.308;2022-07-22T13:08:01;16.95;;;5.93;;
68985;SDS011;56035;37.534;-122.308;2022-07-22T13:12:54;15.97;;;5.53;;
68985;SDS011;56035;37.534;-122.308;2022-07-22T13:15:21;19.90;;;5.55;;
68985;SDS011;56035;37.534;-122.308;2022-07-22T13:17:48;21.27;;;6.00;;
68985;SDS011;56035;37.534;-122.308;2022-07-22T13:20:16;15.13;;;5.13;;
68985;SDS011;56035;37.534;-122.308;2022-07-22T13:22:43;18.27;;;5.83;;
68985;SDS011;56035;37.534;-122.308;2022-07-22T13:25:11;19.80;;;6.17;;
68985;SDS011;56035;37.534;-122.308;2022-07-22T13:27:38;14.13;;;5.83;;
68985;SDS011;56035;37.534;-122.308;2022-07-22T13:32:31;14.37;;;5.40;;
68985;SDS011;56035;37.534;-122.308;2022-07-22T13:34:58;17.42;;;5.35;;
68985;SDS011;56035;37.534;-122.308;2022-07-22T13:37:24;18.20;;;6.00;;
68985;SDS011;56035;37.534;-122.308;2022-07-22T13:39:50;19.77;;;6.03;;
68985;SDS011;56035;37.534;-122.308;2022-07-22T13:42:17;16.85;;;5.88;;
68985;SDS011;56035;37.534;-122.308;2022-07-22T13:44:48;19.03;;;6.87;;
68985;SDS011;56035;37.534;-122.308;2022-07-22T13:47:16;19.40;;;6.50;;
68985;SDS011;56035;37.534;-122.308;2022-07-22T13:49:43;22.83;;;6.57;;
68985;SDS011;56035;37.534;-122.308;2022-07-22T13:52:12;20.70;;;6.20;;
68985;SDS011;56035;37.534;-122.308;2022-07-22T13:54:39;19.98;;;5.97;;
68985;SDS011;56035;37.534;-122.308;2022-07-22T13:57:05;24.05;;;7.30;;
68985;SDS011;56035;37.534;-122.308;2022-07-22T13:59:32;20.33;;;5.88;;
68985;SDS011;56035;37.534;-122.308;2022-07-22T14:01:59;25.37;;;6.50;;
68985;SDS011;56035;37.534;-122.308;2022-07-22T14:04:26;22.73;;;6.87;;
68985;SDS011;56035;37.534;-122.308;2022-07-22T14:06:53;18.60;;;6.10;;
68985;SDS011;56035;37.534;-122.308;2022-07-22T14:09:19;17.98;;;6.00;;
68985;SDS011;56035;37.534;-122.308;2022-07-22T14:11:45;20.63;;;5.85;;
68985;SDS011;56035;37.534;-122.308;2022-07-22T14:14:11;24.93;;;6.73;;
68985;SDS011;56035;37.534;-122.308;2022-07-22T14:16:38;16.67;;;5.53;;
68985;SDS011;56035;37.534;-122.308;2022-07-22T14:19:05;18.58;;;5.90;;
68985;SDS011;56035;37.534;-122.308;2022-07-22T14:21:37;19.03;;;5.90;;
68985;SDS011;56035;37.534;-122.308;2022-07-22T14:24:05;17.60;;;6.00;;
68985;SDS011;56035;37.534;-122.308;2022-07-22T14:26:33;18.43;;;5.30;;
68985;SDS011;56035;37.534;-122.308;2022-07-22T14:29:00;18.83;;;6.07;;
68985;SDS011;56035;37.534;-122.308;2022-07-22T14:31:27;16.98;;;6.07;;
68985;SDS011;56035;37.534;-122.308;2022-07-22T14:33:54;18.80;;;6.15;;
68985;SDS011;56035;37.534;-122.308;2022-07-22T14:36:21;19.70;;;5.43;;
68985;SDS011;56035;37.534;-122.308;2022-07-22T14:38:47;17.70;;;5.82;;
68985;SDS011;56035;37.534;-122.308;2022-07-22T14:41:15;22.13;;;6.50;;
68985;SDS011;56035;37.534;-122.308;2022-07-22T14:43:42;18.00;;;6.47;;